sensor_id;sensor_type;location;lat;lon;timestamp;P1;durP1;ratioP1;P2;durP2;ratioP2
4696;SDS011;2362;50.780;0.292;2022-07-03T00:01:58;1.27;;;1.27;;
4696;SDS011;2362;50.780;0.292;2022-07-03T00:04:24;1.30;;;1.30;;
4696;SDS011;2362;50.780;0.292;2022-07-03T00:06:50;1.35;;;1.35;;
4696;SDS011;2362;50.780;0.292;2022-07-03T00:09:17;1.17;;;1.17;;
4696;SDS011;2362;50.780;0.292;2022-07-03T00:11:43;1.20;;;1.20;;
4696;SDS011;2362;50.780;0.292;2022-07-03T00:14:09;1.40;;;1.40;;
4696;SDS011;2362;50.780;0.292;2022-07-03T00:16:35;1.20;;;1.20;;
4696;SDS011;2362;50.780;0.292;2022-07-03T00:19:01;1.33;;;1.33;;
4696;SDS011;2362;50.780;0.292;2022-07-03T00:21:28;1.17;;;1.17;;
4696;SDS011;2362;50.780;0.292;2022-07-03T00:24:02;1.30;;;1.30;;
4696;SDS011;2362;50.780;0.292;2022-07-03T00:26:31;1.15;;;1.15;;
4696;SDS011;2362;50.780;0.292;2022-07-03T00:29:01;1.30;;;1.30;;
4696;SDS011;2362;50.780;0.292;2022-07-03T00:31:29;1.20;;;1.20;;
4696;SDS011;2362;50.780;0.292;2022-07-03T00:33:59;1.10;;;1.10;;
4696;SDS011;2362;50.780;0.292;2022-07-03T00:36:27;1.20;;;1.20;;
4696;SDS011;2362;50.780;0.292;2022-07-03T00:38:58;1.10;;;1.10;;
4696;SDS011;2362;50.780;0.292;2022-07-03T00:41:25;1.10;;;1.10;;
4696;SDS011;2362;50.780;0.292;2022-07-03T00:43:52;1.10;;;1.10;;
4696;SDS011;2362;50.780;0.292;2022-07-03T00:46:18;1.30;;;1.30;;
4696;SDS011;2362;50.780;0.292;2022-07-03T00:48:48;1.17;;;1.17;;
4696;SDS011;2362;50.780;0.292;2022-07-03T00:51:15;0.95;;;0.95;;
4696;SDS011;2362;50.780;0.292;2022-07-03T00:53:46;1.92;;;1.83;;
4696;SDS011;2362;50.780;0.292;2022-07-03T00:56:13;1.10;;;1.10;;
4696;SDS011;2362;50.780;0.292;2022-07-03T00:58:41;1.15;;;1.15;;
4696;SDS011;2362;50.780;0.292;2022-07-03T01:01:08;1.23;;;1.23;;
4696;SDS011;2362;50.780;0.292;2022-07-03T01:03:38;1.17;;;1.17;;
4696;SDS011;2362;50.780;0.292;2022-07-03T01:06:10;1.00;;;1.00;;
4696;SDS011;2362;50.780;0.292;2022-07-03T01:08:43;1.05;;;1.05;;
4696;SDS011;2362;50.780;0.292;2022-07-03T01:11:43;1.38;;;1.33;;
4696;SDS011;2362;50.780;0.292;2022-07-03T01:19:34;1.20;;;1.20;;
4696;SDS011;2362;50.780;0.292;2022-07-03T01:30:39;1.30;;;1.30;;
4696;SDS011;2362;50.780;0.292;2022-07-03T01:33:12;1.17;;;1.17;;
4696;SDS011;2362;50.780;0.292;2022-07-03T01:38:22;1.05;;;1.05;;
4696;SDS011;2362;50.780;0.292;2022-07-03T01:40:51;1.35;;;1.35;;
4696;SDS011;2362;50.780;0.292;2022-07-03T01:43:21;1.30;;;1.30;;
4696;SDS011;2362;50.780;0.292;2022-07-03T01:45:53;1.10;;;1.10;;
4696;SDS011;2362;50.780;0.292;2022-07-03T01:48:25;1.30;;;1.30;;
4696;SDS011;2362;50.780;0.292;2022-07-03T01:50:52;1.20;;;1.20;;
4696;SDS011;2362;50.780;0.292;2022-07-03T01:53:19;1.05;;;1.05;;
4696;SDS011;2362;50.780;0.292;2022-07-03T01:55:48;1.30;;;1.30;;
4696;SDS011;2362;50.780;0.292;2022-07-03T01:58:16;1.10;;;1.10;;
4696;SDS011;2362;50.780;0.292;2022-07-03T02:03:32;1.60;;;1.50;;
4696;SDS011;2362;50.780;0.292;2022-07-03T02:06:05;1.17;;;1.17;;
4696;SDS011;2362;50.780;0.292;2022-07-03T02:08:44;1.20;;;1.20;;
4696;SDS011;2362;50.780;0.292;2022-07-03T02:11:20;1.70;;;1.60;;
4696;SDS011;2362;50.780;0.292;2022-07-03T02:16:21;1.30;;;1.30;;
4696;SDS011;2362;50.780;0.292;2022-07-03T02:18:58;1.33;;;1.33;;
4696;SDS011;2362;50.780;0.292;2022-07-03T02:21:29;1.17;;;1.17;;
4696;SDS011;2362;50.780;0.292;2022-07-03T02:27:00;1.20;;;1.20;;
4696;SDS011;2362;50.780;0.292;2022-07-03T02:29:35;1.45;;;1.40;;
4696;SDS011;2362;50.780;0.292;2022-07-03T02:32:10;1.30;;;1.30;;
4696;SDS011;2362;50.780;0.292;2022-07-03T02:34:38;1.27;;;1.27;;
4696;SDS011;2362;50.780;0.292;2022-07-03T02:37:12;1.30;;;1.30;;
4696;SDS011;2362;50.780;0.292;2022-07-03T02:39:45;1.30;;;1.30;;
4696;SDS011;2362;50.780;0.292;2022-07-03T02:45:08;1.35;;;1.35;;
4696;SDS011;2362;50.780;0.292;2022-07-03T02:47:57;1.38;;;1.35;;
4696;SDS011;2362;50.780;0.292;2022-07-03T02:50:41;1.20;;;1.20;;
4696;SDS011;2362;50.780;0.292;2022-07-03T02:56:05;1.40;;;1.40;;
4696;SDS011;2362;50.780;0.292;2022-07-03T03:01:54;1.35;;;1.35;;
4696;SDS011;2362;50.780;0.292;2022-07-03T03:04:28;1.50;;;1.42;;
4696;SDS011;2362;50.780;0.292;2022-07-03T03:07:18;1.30;;;1.30;;
4696;SDS011;2362;50.780;0.292;2022-07-03T03:09:44;1.40;;;1.40;;
4696;SDS011;2362;50.780;0.292;2022-07-03T03:12:12;1.40;;;1.35;;
4696;SDS011;2362;50.780;0.292;2022-07-03T03:14:40;1.50;;;1.40;;
4696;SDS011;2362;50.780;0.292;2022-07-03T03:17:08;1.13;;;1.13;;
4696;SDS011;2362;50.780;0.292;2022-07-03T03:19:58;1.20;;;1.20;;
4696;SDS011;2362;50.780;0.292;2022-07-03T03:24:57;1.20;;;1.20;;
4696;SDS011;2362;50.780;0.292;2022-07-03T03:27:25;1.20;;;1.20;;
4696;SDS011;2362;50.780;0.292;2022-07-03T03:29:52;1.27;;;1.27;;
4696;SDS011;2362;50.780;0.292;2022-07-03T03:32:18;1.23;;;1.23;;
4696;SDS011;2362;50.780;0.292;2022-07-03T03:34:45;1.60;;;1.50;;
4696;SDS011;2362;50.780;0.292;2022-07-03T03:37:12;1.17;;;1.17;;
4696;SDS011;2362;50.780;0.292;2022-07-03T03:39:38;1.40;;;1.40;;
4696;SDS011;2362;50.780;0.292;2022-07-03T03:42:04;1.27;;;1.27;;
4696;SDS011;2362;50.780;0.292;2022-07-03T03:44:30;1.40;;;1.40;;
4696;SDS011;2362;50.780;0.292;2022-07-03T03:46:55;1.20;;;1.20;;
4696;SDS011;2362;50.780;0.292;2022-07-03T03:49:21;1.30;;;1.30;;
4696;SDS011;2362;50.780;0.292;2022-07-03T03:51:47;1.40;;;1.40;;
4696;SDS011;2362;50.780;0.292;2022-07-03T03:54:13;1.40;;;1.40;;
4696;SDS011;2362;50.780;0.292;2022-07-03T03:56:39;1.33;;;1.33;;
4696;SDS011;2362;50.780;0.292;2022-07-03T03:59:04;1.20;;;1.20;;
4696;SDS011;2362;50.780;0.292;2022-07-03T04:01:30;1.70;;;1.60;;
4696;SDS011;2362;50.780;0.292;2022-07-03T04:03:56;1.40;;;1.40;;
4696;SDS011;2362;50.780;0.292;2022-07-03T04:06:24;1.17;;;1.17;;
4696;SDS011;2362;50.780;0.292;2022-07-03T04:08:50;1.55;;;1.45;;
4696;SDS011;2362;50.780;0.292;2022-07-03T04:11:16;1.30;;;1.30;;
4696;SDS011;2362;50.780;0.292;2022-07-03T04:13:42;1.60;;;1.50;;
4696;SDS011;2362;50.780;0.292;2022-07-03T04:16:07;1.42;;;1.40;;
4696;SDS011;2362;50.780;0.292;2022-07-03T04:18:33;1.60;;;1.50;;
4696;SDS011;2362;50.780;0.292;2022-07-03T04:20:59;1.25;;;1.25;;
4696;SDS011;2362;50.780;0.292;2022-07-03T04:23:25;1.38;;;1.35;;
4696;SDS011;2362;50.780;0.292;2022-07-03T04:25:50;1.33;;;1.33;;
4696;SDS011;2362;50.780;0.292;2022-07-03T04:28:16;1.58;;;1.48;;
4696;SDS011;2362;50.780;0.292;2022-07-03T04:30:42;1.42;;;1.40;;
4696;SDS011;2362;50.780;0.292;2022-07-03T04:33:08;1.70;;;1.60;;
4696;SDS011;2362;50.780;0.292;2022-07-03T04:35:33;1.38;;;1.38;;
4696;SDS011;2362;50.780;0.292;2022-07-03T04:37:59;1.70;;;1.60;;
4696;SDS011;2362;50.780;0.292;2022-07-03T04:40:25;1.63;;;1.52;;
4696;SDS011;2362;50.780;0.292;2022-07-03T04:42:50;1.30;;;1.30;;
4696;SDS011;2362;50.780;0.292;2022-07-03T04:45:16;1.30;;;1.30;;
4696;SDS011;2362;50.780;0.292;2022-07-03T04:47:42;1.10;;;1.10;;
4696;SDS011;2362;50.780;0.292;2022-07-03T04:50:07;1.15;;;1.15;;
4696;SDS011;2362;50.780;0.292;2022-07-03T04:52:33;1.30;;;1.30;;
4696;SDS011;2362;50.780;0.292;2022-07-03T04:54:59;1.25;;;1.25;;
4696;SDS011;2362;50.780;0.292;2022-07-03T04:57:25;1.40;;;1.40;;
4696;SDS011;2362;50.780;0.292;2022-07-03T04:59:50;1.23;;;1.23;;
4696;SDS011;2362;50.780;0.292;2022-07-03T05:02:16;1.17;;;1.17;;
4696;SDS011;2362;50.780;0.292;2022-07-03T05:04:42;1.40;;;1.40;;
4696;SDS011;2362;50.780;0.292;2022-07-03T05:07:07;1.30;;;1.30;;
4696;SDS011;2362;50.780;0.292;2022-07-03T05:09:33;1.42;;;1.40;;
4696;SDS011;2362;50.780;0.292;2022-07-03T05:11:58;1.30;;;1.30;;
4696;SDS011;2362;50.780;0.292;2022-07-03T05:14:24;1.25;;;1.25;;
4696;SDS011;2362;50.780;0.292;2022-07-03T05:16:50;1.27;;;1.27;;
4696;SDS011;2362;50.780;0.292;2022-07-03T05:19:15;1.00;;;1.00;;
4696;SDS011;2362;50.780;0.292;2022-07-03T05:21:41;1.20;;;1.20;;
4696;SDS011;2362;50.780;0.292;2022-07-03T05:24:07;0.90;;;0.90;;
4696;SDS011;2362;50.780;0.292;2022-07-03T05:26:32;1.00;;;1.00;;
4696;SDS011;2362;50.780;0.292;2022-07-03T05:28:58;0.90;;;0.90;;
4696;SDS011;2362;50.780;0.292;2022-07-03T05:31:24;0.90;;;0.90;;
4696;SDS011;2362;50.780;0.292;2022-07-03T05:33:50;0.90;;;0.90;;
4696;SDS011;2362;50.780;0.292;2022-07-03T05:36:15;0.80;;;0.80;;
4696;SDS011;2362;50.780;0.292;2022-07-03T05:38:41;0.80;;;0.80;;
4696;SDS011;2362;50.780;0.292;2022-07-03T05:41:25;0.90;;;0.90;;
4696;SDS011;2362;50.780;0.292;2022-07-03T05:43:51;0.80;;;0.80;;
4696;SDS011;2362;50.780;0.292;2022-07-03T05:46:17;0.60;;;0.60;;
4696;SDS011;2362;50.780;0.292;2022-07-03T05:48:42;0.77;;;0.77;;
4696;SDS011;2362;50.780;0.292;2022-07-03T05:51:08;0.63;;;0.63;;
4696;SDS011;2362;50.780;0.292;2022-07-03T05:53:34;0.70;;;0.70;;
4696;SDS011;2362;50.780;0.292;2022-07-03T05:55:59;0.90;;;0.90;;
4696;SDS011;2362;50.780;0.292;2022-07-03T05:58:26;0.70;;;0.70;;
4696;SDS011;2362;50.780;0.292;2022-07-03T06:00:52;0.60;;;0.60;;
4696;SDS011;2362;50.780;0.292;2022-07-03T06:03:17;0.70;;;0.70;;
4696;SDS011;2362;50.780;0.292;2022-07-03T06:05:43;0.70;;;0.70;;
4696;SDS011;2362;50.780;0.292;2022-07-03T06:08:09;2.97;;;2.20;;
4696;SDS011;2362;50.780;0.292;2022-07-03T06:10:34;0.80;;;0.80;;
4696;SDS011;2362;50.780;0.292;2022-07-03T06:13:00;4.75;;;1.00;;
4696;SDS011;2362;50.780;0.292;2022-07-03T06:15:27;0.80;;;0.80;;
4696;SDS011;2362;50.780;0.292;2022-07-03T06:17:52;0.90;;;0.90;;
4696;SDS011;2362;50.780;0.292;2022-07-03T06:20:18;1.30;;;1.20;;
4696;SDS011;2362;50.780;0.292;2022-07-03T06:22:44;1.10;;;1.10;;
4696;SDS011;2362;50.780;0.292;2022-07-03T06:25:10;1.20;;;1.20;;
4696;SDS011;2362;50.780;0.292;2022-07-03T06:27:37;1.13;;;1.13;;
4696;SDS011;2362;50.780;0.292;2022-07-03T06:30:03;1.30;;;1.20;;
4696;SDS011;2362;50.780;0.292;2022-07-03T06:32:29;1.00;;;1.00;;
4696;SDS011;2362;50.780;0.292;2022-07-03T06:34:55;1.10;;;1.10;;
4696;SDS011;2362;50.780;0.292;2022-07-03T06:37:21;1.00;;;1.00;;
4696;SDS011;2362;50.780;0.292;2022-07-03T06:39:47;1.80;;;1.40;;
4696;SDS011;2362;50.780;0.292;2022-07-03T06:42:13;1.00;;;1.00;;
4696;SDS011;2362;50.780;0.292;2022-07-03T06:44:39;1.10;;;1.10;;
4696;SDS011;2362;50.780;0.292;2022-07-03T06:47:06;1.10;;;1.10;;
4696;SDS011;2362;50.780;0.292;2022-07-03T06:49:32;1.10;;;1.10;;
4696;SDS011;2362;50.780;0.292;2022-07-03T06:51:58;1.10;;;1.10;;
4696;SDS011;2362;50.780;0.292;2022-07-03T06:54:24;0.98;;;0.98;;
4696;SDS011;2362;50.780;0.292;2022-07-03T06:56:50;1.00;;;1.00;;
4696;SDS011;2362;50.780;0.292;2022-07-03T06:59:15;1.15;;;1.15;;
4696;SDS011;2362;50.780;0.292;2022-07-03T07:01:41;1.20;;;1.20;;
4696;SDS011;2362;50.780;0.292;2022-07-03T07:04:07;1.10;;;1.10;;
4696;SDS011;2362;50.780;0.292;2022-07-03T07:06:32;1.10;;;1.10;;
4696;SDS011;2362;50.780;0.292;2022-07-03T07:08:58;1.02;;;1.02;;
4696;SDS011;2362;50.780;0.292;2022-07-03T07:11:24;1.05;;;1.05;;
4696;SDS011;2362;50.780;0.292;2022-07-03T07:13:49;1.02;;;1.02;;
4696;SDS011;2362;50.780;0.292;2022-07-03T07:16:15;1.00;;;1.00;;
4696;SDS011;2362;50.780;0.292;2022-07-03T07:18:42;0.90;;;0.90;;
4696;SDS011;2362;50.780;0.292;2022-07-03T07:21:08;0.80;;;0.80;;
4696;SDS011;2362;50.780;0.292;2022-07-03T07:23:35;0.70;;;0.70;;
4696;SDS011;2362;50.780;0.292;2022-07-03T07:26:00;0.80;;;0.80;;
4696;SDS011;2362;50.780;0.292;2022-07-03T07:28:26;0.60;;;0.60;;
4696;SDS011;2362;50.780;0.292;2022-07-03T07:30:53;0.70;;;0.70;;
4696;SDS011;2362;50.780;0.292;2022-07-03T07:33:20;0.60;;;0.60;;
4696;SDS011;2362;50.780;0.292;2022-07-03T07:35:46;0.50;;;0.50;;
4696;SDS011;2362;50.780;0.292;2022-07-03T07:38:12;0.50;;;0.50;;
4696;SDS011;2362;50.780;0.292;2022-07-03T07:40:38;0.70;;;0.70;;
4696;SDS011;2362;50.780;0.292;2022-07-03T07:43:04;0.50;;;0.50;;
4696;SDS011;2362;50.780;0.292;2022-07-03T07:45:29;0.55;;;0.55;;
4696;SDS011;2362;50.780;0.292;2022-07-03T07:47:55;0.57;;;0.57;;
4696;SDS011;2362;50.780;0.292;2022-07-03T07:50:21;0.70;;;0.70;;
4696;SDS011;2362;50.780;0.292;2022-07-03T07:52:47;0.70;;;0.70;;
4696;SDS011;2362;50.780;0.292;2022-07-03T07:55:12;0.50;;;0.50;;
4696;SDS011;2362;50.780;0.292;2022-07-03T07:57:39;0.50;;;0.50;;
4696;SDS011;2362;50.780;0.292;2022-07-03T08:00:09;0.50;;;0.50;;
4696;SDS011;2362;50.780;0.292;2022-07-03T08:02:37;0.63;;;0.63;;
4696;SDS011;2362;50.780;0.292;2022-07-03T08:05:21;0.60;;;0.60;;
4696;SDS011;2362;50.780;0.292;2022-07-03T08:08:10;0.65;;;0.60;;
4696;SDS011;2362;50.780;0.292;2022-07-03T08:13:09;0.77;;;0.77;;
4696;SDS011;2362;50.780;0.292;2022-07-03T08:15:35;0.70;;;0.70;;
4696;SDS011;2362;50.780;0.292;2022-07-03T08:18:01;0.70;;;0.70;;
4696;SDS011;2362;50.780;0.292;2022-07-03T08:20:28;0.70;;;0.70;;
4696;SDS011;2362;50.780;0.292;2022-07-03T08:22:54;0.60;;;0.60;;
4696;SDS011;2362;50.780;0.292;2022-07-03T08:25:20;0.70;;;0.70;;
4696;SDS011;2362;50.780;0.292;2022-07-03T08:27:46;0.70;;;0.70;;
4696;SDS011;2362;50.780;0.292;2022-07-03T08:30:12;0.60;;;0.60;;
4696;SDS011;2362;50.780;0.292;2022-07-03T08:32:42;0.70;;;0.70;;
4696;SDS011;2362;50.780;0.292;2022-07-03T08:35:12;0.60;;;0.60;;
4696;SDS011;2362;50.780;0.292;2022-07-03T08:37:38;0.85;;;0.73;;
4696;SDS011;2362;50.780;0.292;2022-07-03T08:40:06;0.63;;;0.63;;
4696;SDS011;2362;50.780;0.292;2022-07-03T08:42:33;0.60;;;0.60;;
4696;SDS011;2362;50.780;0.292;2022-07-03T08:45:01;0.60;;;0.60;;
4696;SDS011;2362;50.780;0.292;2022-07-03T08:47:27;0.60;;;0.60;;
4696;SDS011;2362;50.780;0.292;2022-07-03T08:49:56;0.70;;;0.70;;
4696;SDS011;2362;50.780;0.292;2022-07-03T08:52:24;0.70;;;0.70;;
4696;SDS011;2362;50.780;0.292;2022-07-03T08:54:51;0.60;;;0.60;;
4696;SDS011;2362;50.780;0.292;2022-07-03T08:57:17;0.60;;;0.60;;
4696;SDS011;2362;50.780;0.292;2022-07-03T08:59:44;0.63;;;0.63;;
4696;SDS011;2362;50.780;0.292;2022-07-03T09:02:14;0.50;;;0.50;;
4696;SDS011;2362;50.780;0.292;2022-07-03T09:04:41;0.70;;;0.70;;
4696;SDS011;2362;50.780;0.292;2022-07-03T09:07:08;0.70;;;0.70;;
4696;SDS011;2362;50.780;0.292;2022-07-03T09:09:36;0.57;;;0.57;;
4696;SDS011;2362;50.780;0.292;2022-07-03T09:12:04;0.52;;;0.52;;
4696;SDS011;2362;50.780;0.292;2022-07-03T09:14:30;0.40;;;0.40;;
4696;SDS011;2362;50.780;0.292;2022-07-03T09:16:56;0.50;;;0.50;;
4696;SDS011;2362;50.780;0.292;2022-07-03T09:19:41;0.50;;;0.50;;
4696;SDS011;2362;50.780;0.292;2022-07-03T09:22:25;0.40;;;0.40;;
4696;SDS011;2362;50.780;0.292;2022-07-03T09:25:02;1.70;;;1.27;;
4696;SDS011;2362;50.780;0.292;2022-07-03T09:27:33;0.60;;;0.60;;
4696;SDS011;2362;50.780;0.292;2022-07-03T09:30:00;0.40;;;0.40;;
4696;SDS011;2362;50.780;0.292;2022-07-03T09:35:11;0.50;;;0.50;;
4696;SDS011;2362;50.780;0.292;2022-07-03T09:38:02;0.50;;;0.50;;
4696;SDS011;2362;50.780;0.292;2022-07-03T09:43:17;0.50;;;0.50;;
4696;SDS011;2362;50.780;0.292;2022-07-03T09:45:59;0.60;;;0.60;;
4696;SDS011;2362;50.780;0.292;2022-07-03T09:48:36;0.60;;;0.60;;
4696;SDS011;2362;50.780;0.292;2022-07-03T09:51:19;0.70;;;0.70;;
4696;SDS011;2362;50.780;0.292;2022-07-03T09:53:58;0.50;;;0.50;;
4696;SDS011;2362;50.780;0.292;2022-07-03T09:56:26;0.50;;;0.50;;
4696;SDS011;2362;50.780;0.292;2022-07-03T09:59:15;0.60;;;0.60;;
4696;SDS011;2362;50.780;0.292;2022-07-03T10:01:41;0.70;;;0.70;;
4696;SDS011;2362;50.780;0.292;2022-07-03T10:04:09;0.60;;;0.60;;
4696;SDS011;2362;50.780;0.292;2022-07-03T10:09:25;0.68;;;0.68;;
4696;SDS011;2362;50.780;0.292;2022-07-03T10:11:51;0.60;;;0.60;;
4696;SDS011;2362;50.780;0.292;2022-07-03T10:14:18;0.63;;;0.63;;
4696;SDS011;2362;50.780;0.292;2022-07-03T10:16:45;0.63;;;0.63;;
4696;SDS011;2362;50.780;0.292;2022-07-03T10:19:22;0.63;;;0.63;;
4696;SDS011;2362;50.780;0.292;2022-07-03T10:21:51;0.70;;;0.70;;
4696;SDS011;2362;50.780;0.292;2022-07-03T10:24:21;2.05;;;1.25;;
4696;SDS011;2362;50.780;0.292;2022-07-03T10:26:48;0.60;;;0.60;;
4696;SDS011;2362;50.780;0.292;2022-07-03T10:29:15;0.60;;;0.60;;
4696;SDS011;2362;50.780;0.292;2022-07-03T10:31:44;0.60;;;0.60;;
4696;SDS011;2362;50.780;0.292;2022-07-03T10:34:20;0.50;;;0.50;;
4696;SDS011;2362;50.780;0.292;2022-07-03T10:37:00;0.57;;;0.57;;
4696;SDS011;2362;50.780;0.292;2022-07-03T10:39:30;0.50;;;0.50;;
4696;SDS011;2362;50.780;0.292;2022-07-03T10:42:00;0.70;;;0.70;;
4696;SDS011;2362;50.780;0.292;2022-07-03T10:44:52;0.70;;;0.70;;
4696;SDS011;2362;50.780;0.292;2022-07-03T10:47:43;0.70;;;0.70;;
4696;SDS011;2362;50.780;0.292;2022-07-03T10:50:20;0.55;;;0.55;;
4696;SDS011;2362;50.780;0.292;2022-07-03T10:52:48;0.50;;;0.50;;
4696;SDS011;2362;50.780;0.292;2022-07-03T10:55:15;0.60;;;0.60;;
4696;SDS011;2362;50.780;0.292;2022-07-03T10:57:42;0.50;;;0.50;;
4696;SDS011;2362;50.780;0.292;2022-07-03T11:00:28;0.50;;;0.50;;
4696;SDS011;2362;50.780;0.292;2022-07-03T11:02:54;0.50;;;0.50;;
4696;SDS011;2362;50.780;0.292;2022-07-03T11:05:20;0.60;;;0.60;;
4696;SDS011;2362;50.780;0.292;2022-07-03T11:20:36;0.70;;;0.70;;
4696;SDS011;2362;50.780;0.292;2022-07-03T11:25:49;0.70;;;0.70;;
4696;SDS011;2362;50.780;0.292;2022-07-03T11:36:10;0.75;;;0.75;;
4696;SDS011;2362;50.780;0.292;2022-07-03T11:41:23;0.80;;;0.80;;
4696;SDS011;2362;50.780;0.292;2022-07-03T11:43:55;1.25;;;1.15;;
4696;SDS011;2362;50.780;0.292;2022-07-03T11:46:24;0.63;;;0.63;;
4696;SDS011;2362;50.780;0.292;2022-07-03T11:51:42;0.63;;;0.63;;
4696;SDS011;2362;50.780;0.292;2022-07-03T11:54:22;0.70;;;0.70;;
4696;SDS011;2362;50.780;0.292;2022-07-03T11:56:47;0.80;;;0.80;;
4696;SDS011;2362;50.780;0.292;2022-07-03T11:59:13;0.63;;;0.63;;
4696;SDS011;2362;50.780;0.292;2022-07-03T12:01:39;0.60;;;0.60;;
4696;SDS011;2362;50.780;0.292;2022-07-03T12:04:09;0.70;;;0.70;;
4696;SDS011;2362;50.780;0.292;2022-07-03T12:09:02;0.60;;;0.60;;
4696;SDS011;2362;50.780;0.292;2022-07-03T12:11:36;0.60;;;0.60;;
4696;SDS011;2362;50.780;0.292;2022-07-03T12:14:02;0.77;;;0.77;;
4696;SDS011;2362;50.780;0.292;2022-07-03T12:16:31;0.70;;;0.70;;
4696;SDS011;2362;50.780;0.292;2022-07-03T12:19:02;0.80;;;0.80;;
4696;SDS011;2362;50.780;0.292;2022-07-03T12:21:36;0.60;;;0.60;;
4696;SDS011;2362;50.780;0.292;2022-07-03T12:26:36;2.67;;;1.13;;
4696;SDS011;2362;50.780;0.292;2022-07-03T12:29:06;0.80;;;0.80;;
4696;SDS011;2362;50.780;0.292;2022-07-03T12:31:44;0.77;;;0.77;;
4696;SDS011;2362;50.780;0.292;2022-07-03T12:34:12;0.90;;;0.90;;
4696;SDS011;2362;50.780;0.292;2022-07-03T12:36:38;0.70;;;0.70;;
4696;SDS011;2362;50.780;0.292;2022-07-03T12:39:05;0.80;;;0.80;;
4696;SDS011;2362;50.780;0.292;2022-07-03T12:41:31;0.70;;;0.70;;
4696;SDS011;2362;50.780;0.292;2022-07-03T12:43:58;0.80;;;0.80;;
4696;SDS011;2362;50.780;0.292;2022-07-03T12:46:33;0.85;;;0.85;;
4696;SDS011;2362;50.780;0.292;2022-07-03T12:49:08;0.60;;;0.60;;
4696;SDS011;2362;50.780;0.292;2022-07-03T12:51:44;0.70;;;0.70;;
4696;SDS011;2362;50.780;0.292;2022-07-03T12:54:21;0.70;;;0.70;;
4696;SDS011;2362;50.780;0.292;2022-07-03T12:57:07;0.80;;;0.80;;
4696;SDS011;2362;50.780;0.292;2022-07-03T13:02:42;0.70;;;0.70;;
4696;SDS011;2362;50.780;0.292;2022-07-03T13:05:13;0.80;;;0.80;;
4696;SDS011;2362;50.780;0.292;2022-07-03T13:07:44;0.68;;;0.68;;
4696;SDS011;2362;50.780;0.292;2022-07-03T13:10:13;0.80;;;0.80;;
4696;SDS011;2362;50.780;0.292;2022-07-03T13:12:50;0.70;;;0.70;;
4696;SDS011;2362;50.780;0.292;2022-07-03T13:15:27;0.80;;;0.80;;
4696;SDS011;2362;50.780;0.292;2022-07-03T13:20:21;0.98;;;0.95;;
4696;SDS011;2362;50.780;0.292;2022-07-03T13:22:48;0.60;;;0.60;;
4696;SDS011;2362;50.780;0.292;2022-07-03T13:25:14;0.77;;;0.77;;
4696;SDS011;2362;50.780;0.292;2022-07-03T13:27:40;0.80;;;0.80;;
4696;SDS011;2362;50.780;0.292;2022-07-03T13:30:09;0.70;;;0.70;;
4696;SDS011;2362;50.780;0.292;2022-07-03T13:32:35;0.70;;;0.70;;
4696;SDS011;2362;50.780;0.292;2022-07-03T13:35:00;0.60;;;0.60;;
4696;SDS011;2362;50.780;0.292;2022-07-03T13:37:26;0.70;;;0.70;;
4696;SDS011;2362;50.780;0.292;2022-07-03T13:39:51;0.70;;;0.70;;
4696;SDS011;2362;50.780;0.292;2022-07-03T13:42:17;0.70;;;0.70;;
4696;SDS011;2362;50.780;0.292;2022-07-03T13:44:43;0.60;;;0.60;;
4696;SDS011;2362;50.780;0.292;2022-07-03T13:47:08;0.60;;;0.60;;
4696;SDS011;2362;50.780;0.292;2022-07-03T13:49:34;0.80;;;0.80;;
4696;SDS011;2362;50.780;0.292;2022-07-03T13:52:00;0.65;;;0.65;;
4696;SDS011;2362;50.780;0.292;2022-07-03T13:54:26;0.70;;;0.70;;
4696;SDS011;2362;50.780;0.292;2022-07-03T13:56:52;0.80;;;0.80;;
4696;SDS011;2362;50.780;0.292;2022-07-03T13:59:17;0.80;;;0.80;;
4696;SDS011;2362;50.780;0.292;2022-07-03T14:01:44;0.60;;;0.60;;
4696;SDS011;2362;50.780;0.292;2022-07-03T14:04:10;0.70;;;0.70;;
4696;SDS011;2362;50.780;0.292;2022-07-03T14:06:36;0.80;;;0.80;;
4696;SDS011;2362;50.780;0.292;2022-07-03T14:09:02;0.70;;;0.70;;
4696;SDS011;2362;50.780;0.292;2022-07-03T14:11:28;0.60;;;0.60;;
4696;SDS011;2362;50.780;0.292;2022-07-03T14:13:54;0.90;;;0.88;;
4696;SDS011;2362;50.780;0.292;2022-07-03T14:16:19;0.75;;;0.75;;
4696;SDS011;2362;50.780;0.292;2022-07-03T14:18:45;0.70;;;0.70;;
4696;SDS011;2362;50.780;0.292;2022-07-03T14:21:11;0.80;;;0.80;;
4696;SDS011;2362;50.780;0.292;2022-07-03T14:23:37;0.60;;;0.60;;
4696;SDS011;2362;50.780;0.292;2022-07-03T14:26:03;0.70;;;0.70;;
4696;SDS011;2362;50.780;0.292;2022-07-03T14:28:28;0.60;;;0.60;;
4696;SDS011;2362;50.780;0.292;2022-07-03T14:31:13;0.60;;;0.60;;
4696;SDS011;2362;50.780;0.292;2022-07-03T14:33:44;0.77;;;0.77;;
4696;SDS011;2362;50.780;0.292;2022-07-03T14:36:10;0.70;;;0.70;;
4696;SDS011;2362;50.780;0.292;2022-07-03T14:38:36;0.65;;;0.65;;
4696;SDS011;2362;50.780;0.292;2022-07-03T14:41:02;0.70;;;0.70;;
4696;SDS011;2362;50.780;0.292;2022-07-03T14:43:27;0.90;;;0.90;;
4696;SDS011;2362;50.780;0.292;2022-07-03T14:45:53;0.80;;;0.80;;
4696;SDS011;2362;50.780;0.292;2022-07-03T14:48:19;0.90;;;0.90;;
4696;SDS011;2362;50.780;0.292;2022-07-03T14:50:45;0.90;;;0.90;;
4696;SDS011;2362;50.780;0.292;2022-07-03T14:53:11;1.92;;;1.83;;
4696;SDS011;2362;50.780;0.292;2022-07-03T14:55:41;1.70;;;0.90;;
4696;SDS011;2362;50.780;0.292;2022-07-03T15:00:42;0.63;;;0.63;;
4696;SDS011;2362;50.780;0.292;2022-07-03T15:03:16;0.70;;;0.70;;
4696;SDS011;2362;50.780;0.292;2022-07-03T15:05:54;0.80;;;0.80;;
4696;SDS011;2362;50.780;0.292;2022-07-03T15:10:53;0.70;;;0.70;;
4696;SDS011;2362;50.780;0.292;2022-07-03T15:13:19;0.70;;;0.70;;
4696;SDS011;2362;50.780;0.292;2022-07-03T15:15:46;0.68;;;0.68;;
4696;SDS011;2362;50.780;0.292;2022-07-03T15:18:13;0.70;;;0.70;;
4696;SDS011;2362;50.780;0.292;2022-07-03T15:20:42;0.95;;;0.95;;
4696;SDS011;2362;50.780;0.292;2022-07-03T15:23:09;0.80;;;0.80;;
4696;SDS011;2362;50.780;0.292;2022-07-03T15:25:36;0.80;;;0.80;;
4696;SDS011;2362;50.780;0.292;2022-07-03T15:28:03;0.90;;;0.90;;
4696;SDS011;2362;50.780;0.292;2022-07-03T15:30:29;0.60;;;0.60;;
4696;SDS011;2362;50.780;0.292;2022-07-03T15:32:55;0.70;;;0.70;;
4696;SDS011;2362;50.780;0.292;2022-07-03T15:35:22;0.80;;;0.80;;
4696;SDS011;2362;50.780;0.292;2022-07-03T15:37:54;0.80;;;0.80;;
4696;SDS011;2362;50.780;0.292;2022-07-03T15:46:03;0.88;;;0.88;;
4696;SDS011;2362;50.780;0.292;2022-07-03T15:49:07;0.88;;;0.88;;
4696;SDS011;2362;50.780;0.292;2022-07-03T15:51:25;0.70;;;0.70;;
4696;SDS011;2362;50.780;0.292;2022-07-03T15:54:03;0.73;;;0.73;;
4696;SDS011;2362;50.780;0.292;2022-07-03T15:56:36;0.93;;;0.93;;
4696;SDS011;2362;50.780;0.292;2022-07-03T15:59:03;2.45;;;0.90;;
4696;SDS011;2362;50.780;0.292;2022-07-03T16:01:31;0.60;;;0.60;;
4696;SDS011;2362;50.780;0.292;2022-07-03T16:07:23;0.70;;;0.70;;
4696;SDS011;2362;50.780;0.292;2022-07-03T16:09:51;0.80;;;0.80;;
4696;SDS011;2362;50.780;0.292;2022-07-03T16:12:17;0.68;;;0.68;;
4696;SDS011;2362;50.780;0.292;2022-07-03T16:14:49;0.70;;;0.70;;
4696;SDS011;2362;50.780;0.292;2022-07-03T16:17:19;0.60;;;0.60;;
4696;SDS011;2362;50.780;0.292;2022-07-03T16:19:47;0.68;;;0.68;;
4696;SDS011;2362;50.780;0.292;2022-07-03T16:22:14;0.70;;;0.70;;
4696;SDS011;2362;50.780;0.292;2022-07-03T16:24:41;0.80;;;0.80;;
4696;SDS011;2362;50.780;0.292;2022-07-03T16:27:10;0.70;;;0.70;;
4696;SDS011;2362;50.780;0.292;2022-07-03T16:29:38;0.65;;;0.65;;
4696;SDS011;2362;50.780;0.292;2022-07-03T16:32:04;0.70;;;0.70;;
4696;SDS011;2362;50.780;0.292;2022-07-03T16:34:40;0.73;;;0.73;;
4696;SDS011;2362;50.780;0.292;2022-07-03T16:37:09;1.00;;;1.00;;
4696;SDS011;2362;50.780;0.292;2022-07-03T16:39:39;0.80;;;0.80;;
4696;SDS011;2362;50.780;0.292;2022-07-03T16:42:10;0.70;;;0.70;;
4696;SDS011;2362;50.780;0.292;2022-07-03T16:44:40;0.70;;;0.70;;
4696;SDS011;2362;50.780;0.292;2022-07-03T16:47:07;0.65;;;0.65;;
4696;SDS011;2362;50.780;0.292;2022-07-03T16:49:34;0.68;;;0.68;;
4696;SDS011;2362;50.780;0.292;2022-07-03T16:54:32;0.77;;;0.77;;
4696;SDS011;2362;50.780;0.292;2022-07-03T16:56:58;0.68;;;0.68;;
4696;SDS011;2362;50.780;0.292;2022-07-03T16:59:25;0.77;;;0.77;;
4696;SDS011;2362;50.780;0.292;2022-07-03T17:01:54;0.70;;;0.70;;
4696;SDS011;2362;50.780;0.292;2022-07-03T17:04:21;0.82;;;0.82;;
4696;SDS011;2362;50.780;0.292;2022-07-03T17:06:47;0.80;;;0.80;;
4696;SDS011;2362;50.780;0.292;2022-07-03T17:09:14;0.90;;;0.90;;